createdAt,value
2022-08-07T00:00:36.249Z,56.84
2022-08-07T00:03:08.735Z,57.06
2022-08-07T00:05:37.052Z,57.32
2022-08-07T00:08:05.000Z,57.23
2022-08-07T00:10:34.895Z,57.65
2022-08-07T00:13:17.567Z,57.67
2022-08-07T00:15:51.652Z,57.77
2022-08-07T00:18:24.364Z,57.70
2022-08-07T00:20:53.447Z,57.86
2022-08-07T00:23:21.632Z,58.01
2022-08-07T00:25:58.135Z,58.06
2022-08-07T00:28:33.180Z,58.14
2022-08-07T00:31:01.299Z,58.03
2022-08-07T00:33:32.770Z,57.94
2022-08-07T00:36:00.311Z,57.89
2022-08-07T00:38:31.351Z,57.80
2022-08-07T00:41:03.157Z,57.76
2022-08-07T00:44:00.547Z,57.84
2022-08-07T00:46:17.397Z,58.14
2022-08-07T00:48:44.444Z,58.16
2022-08-07T00:51:18.140Z,58.43
2022-08-07T00:53:50.829Z,58.31
2022-08-07T00:56:33.979Z,58.90
2022-08-07T00:59:01.019Z,58.99
2022-08-07T01:01:28.730Z,59.05
2022-08-07T01:04:08.628Z,59.20
2022-08-07T01:06:39.144Z,59.18
2022-08-07T01:09:05.649Z,59.30
2022-08-07T01:12:27.805Z,59.63
2022-08-07T01:14:28.240Z,59.37
2022-08-07T01:16:55.513Z,59.35
2022-08-07T01:19:25.150Z,59.29
2022-08-07T01:22:04.042Z,59.37
2022-08-07T01:24:36.074Z,59.80
2022-08-07T01:27:19.544Z,59.70
2022-08-07T01:29:47.307Z,59.75
2022-08-07T01:32:14.289Z,59.66
2022-08-07T01:34:47.151Z,59.93
2022-08-07T01:37:19.326Z,59.94
2022-08-07T01:39:47.767Z,60.05
2022-08-07T01:42:37.725Z,60.22
2022-08-07T01:45:04.531Z,60.42
2022-08-07T01:48:30.133Z,60.62
2022-08-07T01:50:28.565Z,60.62
2022-08-07T01:52:58.514Z,60.90
2022-08-07T01:55:34.300Z,60.75
2022-08-07T01:58:29.099Z,61.02
2022-08-07T02:01:10.147Z,61.10
2022-08-07T02:04:09.108Z,60.98
2022-08-07T02:06:40.813Z,61.02
2022-08-07T02:09:11.809Z,61.26
2022-08-07T02:12:17.652Z,61.17
2022-08-07T02:14:50.137Z,61.32
2022-08-07T02:17:27.760Z,61.46
2022-08-07T02:20:09.496Z,61.25
2022-08-07T02:22:45.630Z,61.29
2022-08-07T02:25:17.272Z,61.46
2022-08-07T02:27:52.195Z,61.26
2022-08-07T02:30:22.066Z,61.58
2022-08-07T02:33:03.999Z,61.49
2022-08-07T02:36:28.564Z,61.82
2022-08-07T02:38:31.830Z,61.92
2022-08-07T02:40:59.998Z,62.20
2022-08-07T02:43:28.006Z,61.89
2022-08-07T02:46:01.985Z,61.71
2022-08-07T02:48:30.153Z,62.17
2022-08-07T02:51:05.570Z,62.42
2022-08-07T02:53:38.638Z,62.59
2022-08-07T02:56:13.046Z,62.88
2022-08-07T02:58:54.230Z,63.09
2022-08-07T03:01:35.499Z,62.90
2022-08-07T03:04:12.869Z,62.95
2022-08-07T03:06:44.830Z,62.84
2022-08-07T03:09:13.747Z,62.93
2022-08-07T03:11:52.529Z,62.85
2022-08-07T03:14:25.661Z,62.90
2022-08-07T03:16:52.555Z,63.35
2022-08-07T03:19:20.081Z,63.29
2022-08-07T03:21:50.779Z,63.45
2022-08-07T03:24:26.884Z,63.29
2022-08-07T03:26:58.871Z,63.42
2022-08-07T03:29:33.683Z,63.47
2022-08-07T03:32:05.150Z,63.41
2022-08-07T03:34:39.288Z,63.50
2022-08-07T03:37:12.407Z,63.73
2022-08-07T03:39:46.447Z,63.53
2022-08-07T03:42:27.131Z,63.67
2022-08-07T03:44:57.971Z,63.58
2022-08-07T03:47:25.201Z,63.81
2022-08-07T03:49:57.041Z,63.67
2022-08-07T03:52:27.321Z,63.70
2022-08-07T03:55:07.124Z,63.84
2022-08-07T03:58:34.395Z,63.71
2022-08-07T04:00:29.318Z,63.74
2022-08-07T04:02:58.861Z,63.71
2022-08-07T04:05:39.272Z,63.88
2022-08-07T04:08:11.361Z,64.04
2022-08-07T04:10:39.547Z,64.27
2022-08-07T04:13:15.135Z,64.17
2022-08-07T04:15:43.541Z,64.45
2022-08-07T04:18:57.083Z,64.39
2022-08-07T04:21:01.599Z,64.47
2022-08-07T04:23:43.212Z,64.35
2022-08-07T04:26:21.852Z,64.54
2022-08-07T04:28:48.753Z,64.63
2022-08-07T04:31:20.308Z,64.41
2022-08-07T04:34:02.830Z,64.34
2022-08-07T04:36:29.222Z,64.37
2022-08-07T04:38:56.436Z,64.47
2022-08-07T04:41:24.697Z,64.54
2022-08-07T04:44:12.977Z,64.43
2022-08-07T04:47:08.245Z,64.66
2022-08-07T04:49:57.974Z,64.80
2022-08-07T04:53:07.469Z,64.91
2022-08-07T04:58:13.072Z,64.97
2022-08-07T05:00:09.949Z,65.15
2022-08-07T05:02:39.534Z,65.20
2022-08-07T05:05:53.270Z,64.93
2022-08-07T05:08:59.713Z,64.60
2022-08-07T05:11:27.596Z,64.63
2022-08-07T05:14:55.368Z,64.83
2022-08-07T05:17:12.010Z,64.74
2022-08-07T05:19:44.851Z,64.87
2022-08-07T05:22:13.431Z,64.59
2022-08-07T05:24:57.119Z,64.45
2022-08-07T05:28:05.977Z,64.23
2022-08-07T05:30:25.066Z,64.50
2022-08-07T05:32:58.772Z,64.28
2022-08-07T05:35:33.337Z,64.16
2022-08-07T05:38:59.994Z,63.87
2022-08-07T05:41:12.155Z,63.26
2022-08-07T05:44:07.613Z,62.95
2022-08-07T05:46:34.815Z,62.46
2022-08-07T05:49:11.790Z,62.22
2022-08-07T05:51:40.107Z,61.57
2022-08-07T05:54:12.272Z,61.48
2022-08-07T05:56:55.452Z,59.76
2022-08-07T05:59:24.558Z,58.22
2022-08-07T06:01:51.750Z,56.90
2022-08-07T06:04:21.150Z,54.75
2022-08-07T06:06:56.518Z,52.29
2022-08-07T06:09:44.999Z,50.20
2022-08-07T06:12:17.194Z,47.75
2022-08-07T06:14:49.682Z,45.96
2022-08-07T06:17:19.477Z,45.19
2022-08-07T06:20:03.346Z,43.82
2022-08-07T06:22:38.853Z,42.47
2022-08-07T06:25:10.043Z,40.57
2022-08-07T06:27:43.996Z,40.05
2022-08-07T06:30:32.184Z,39.04
2022-08-07T06:33:10.037Z,38.52
2022-08-07T06:35:47.744Z,37.71
2022-08-07T06:38:28.742Z,35.60
2022-08-07T06:40:59.021Z,35.05
2022-08-07T06:43:27.595Z,34.20
2022-08-07T06:46:11.481Z,33.92
2022-08-07T06:48:42.190Z,33.53
2022-08-07T06:51:31.273Z,33.29
2022-08-07T06:55:28.141Z,33.41
2022-08-07T06:56:56.854Z,33.10
2022-08-07T07:00:14.271Z,32.73
2022-08-07T07:02:26.943Z,32.45
2022-08-07T07:05:12.589Z,32.16
2022-08-07T07:07:59.244Z,32.94
2022-08-07T07:10:35.121Z,32.76
2022-08-07T07:13:56.073Z,32.60
2022-08-07T07:16:18.014Z,32.83
2022-08-07T07:18:57.520Z,32.05
2022-08-07T07:22:04.058Z,32.22
2022-08-07T07:24:17.389Z,31.98
2022-08-07T07:26:51.831Z,32.01
2022-08-07T07:29:57.123Z,31.39
2022-08-07T07:32:14.014Z,31.72
2022-08-07T07:34:45.879Z,31.68
2022-08-07T07:37:44.435Z,31.29
2022-08-07T07:40:10.408Z,31.46
2022-08-07T07:42:43.810Z,31.23
2022-08-07T07:45:19.489Z,31.80
2022-08-07T07:47:53.327Z,32.16
2022-08-07T07:50:33.878Z,31.67
2022-08-07T07:53:20.188Z,31.57
2022-08-07T07:55:57.789Z,30.96
2022-08-07T07:58:31.319Z,30.71
2022-08-07T08:02:04.143Z,30.63
2022-08-07T08:04:11.615Z,30.54
2022-08-07T08:06:52.211Z,30.35
2022-08-07T08:09:29.467Z,29.79
2022-08-07T08:12:02.986Z,29.79
2022-08-07T08:14:34.426Z,30.06
2022-08-07T08:17:56.448Z,30.04
2022-08-07T08:20:19.626Z,29.32
2022-08-07T08:23:04.578Z,29.40
2022-08-07T08:25:56.317Z,29.44
2022-08-07T08:28:37.922Z,30.12
2022-08-07T08:31:08.639Z,29.43
2022-08-07T08:33:49.321Z,28.71
2022-08-07T08:36:30.092Z,28.83
2022-08-07T08:39:02.949Z,29.42
2022-08-07T08:41:58.533Z,29.33
2022-08-07T08:45:14.254Z,29.73
2022-08-07T08:48:12.372Z,28.74
2022-08-07T08:50:53.350Z,28.67
2022-08-07T08:53:32.290Z,27.76
2022-08-07T08:56:27.113Z,27.17
2022-08-07T08:59:16.409Z,27.21
2022-08-07T09:01:49.829Z,27.16
2022-08-07T09:04:33.783Z,27.18
2022-08-07T09:07:11.539Z,27.09
2022-08-07T09:09:59.922Z,27.48
2022-08-07T09:12:40.400Z,28.28
2022-08-07T09:16:21.760Z,28.71
2022-08-07T09:18:53.217Z,28.07
2022-08-07T09:21:33.955Z,28.12
2022-08-07T09:25:00.672Z,27.44
2022-08-07T09:27:38.404Z,27.26
2022-08-07T09:30:20.697Z,27.42
2022-08-07T09:33:52.937Z,27.45
2022-08-07T09:36:35.811Z,26.82
2022-08-07T09:39:52.671Z,27.11
2022-08-07T09:42:17.204Z,27.26
2022-08-07T09:47:42.586Z,27.73
2022-08-07T09:48:11.769Z,27.92
2022-08-07T09:50:59.629Z,28.18
2022-08-07T09:53:40.544Z,28.20
2022-08-07T09:56:37.589Z,28.43
2022-08-07T09:59:37.074Z,28.33
2022-08-07T10:03:08.553Z,28.07
2022-08-07T10:05:59.822Z,27.54
2022-08-07T10:08:45.213Z,28.33
2022-08-07T10:12:01.754Z,27.39
2022-08-07T10:14:47.511Z,27.82
2022-08-07T10:18:01.349Z,26.90
2022-08-07T10:20:51.913Z,26.22
2022-08-07T10:24:06.342Z,26.24
2022-08-07T10:26:53.229Z,25.73
2022-08-07T10:29:43.172Z,25.55
2022-08-07T10:32:51.257Z,25.16
2022-08-07T10:35:27.266Z,24.63
2022-08-07T10:38:56.624Z,24.76
2022-08-07T10:41:46.819Z,25.32
2022-08-07T10:44:38.386Z,24.42
2022-08-07T10:47:54.960Z,24.46
2022-08-07T10:50:25.849Z,23.92
2022-08-07T10:53:05.183Z,23.62
2022-08-07T10:55:43.976Z,23.24
2022-08-07T10:58:46.209Z,23.85
2022-08-07T11:01:51.789Z,23.95
2022-08-07T11:04:57.828Z,24.74
2022-08-07T11:07:59.182Z,24.21
2022-08-07T11:10:50.011Z,23.92
2022-08-07T11:14:44.699Z,24.19
2022-08-07T11:17:07.325Z,23.99
2022-08-07T11:19:50.145Z,24.48
2022-08-07T11:22:45.816Z,24.52
2022-08-07T11:25:42.513Z,25.10
2022-08-07T11:28:21.264Z,26.63
2022-08-07T11:30:51.246Z,26.44
2022-08-07T11:33:54.226Z,26.48
2022-08-07T11:36:45.097Z,27.03
2022-08-07T11:39:59.795Z,26.28
2022-08-07T11:42:59.079Z,26.04
2022-08-07T11:45:37.781Z,25.53
2022-08-07T11:49:27.454Z,25.13
2022-08-07T11:52:14.500Z,25.51
2022-08-07T11:54:54.837Z,25.54
2022-08-07T11:58:00.878Z,25.76
2022-08-07T12:01:00.213Z,25.60
2022-08-07T12:03:53.082Z,25.32
2022-08-07T12:06:40.228Z,24.92
2022-08-07T12:09:35.780Z,24.93
2022-08-07T12:12:12.412Z,25.51
2022-08-07T12:14:55.734Z,25.46
2022-08-07T12:17:34.143Z,25.67
2022-08-07T12:20:30.362Z,24.88
2022-08-07T12:24:06.789Z,24.85
2022-08-07T12:26:46.801Z,23.51
2022-08-07T12:29:52.550Z,24.79
2022-08-07T12:32:40.163Z,24.87
2022-08-07T12:35:12.519Z,24.93
2022-08-07T12:38:10.353Z,24.83
2022-08-07T12:40:47.216Z,24.33
2022-08-07T12:44:02.975Z,24.74
2022-08-07T12:46:15.843Z,24.22
2022-08-07T12:48:56.546Z,23.92
2022-08-07T12:51:46.415Z,23.58
2022-08-07T12:54:54.666Z,23.17
2022-08-07T12:58:00.283Z,23.82
2022-08-07T13:00:30.988Z,24.93
2022-08-07T13:03:27.042Z,24.61
2022-08-07T13:06:21.838Z,24.33
2022-08-07T13:10:18.930Z,23.82
2022-08-07T13:12:20.109Z,23.87
2022-08-07T13:15:23.705Z,22.77
2022-08-07T13:18:26.440Z,22.56
2022-08-07T13:21:07.230Z,23.43
2022-08-07T13:24:04.288Z,23.68
2022-08-07T13:26:46.154Z,24.51
2022-08-07T13:29:18.538Z,25.43
2022-08-07T13:32:23.752Z,25.66
2022-08-07T13:35:08.541Z,25.82
2022-08-07T13:37:58.502Z,25.85
2022-08-07T13:40:42.714Z,25.93
2022-08-07T13:43:13.535Z,26.00
2022-08-07T13:46:12.830Z,25.88
2022-08-07T13:48:35.103Z,25.39
2022-08-07T13:51:27.482Z,25.42
2022-08-07T13:54:01.628Z,25.12
2022-08-07T13:56:35.461Z,25.15
2022-08-07T13:59:12.842Z,24.93
2022-08-07T14:02:16.604Z,24.72
2022-08-07T14:04:54.509Z,25.00
2022-08-07T14:07:30.416Z,24.41
2022-08-07T14:10:16.540Z,25.05
2022-08-07T14:12:54.867Z,25.18
2022-08-07T14:15:35.097Z,25.14
2022-08-07T14:18:30.647Z,25.07
2022-08-07T14:22:04.027Z,25.19
2022-08-07T14:24:33.587Z,25.65
2022-08-07T14:28:09.950Z,25.34
2022-08-07T14:30:09.549Z,25.63
2022-08-07T14:32:47.153Z,26.34
2022-08-07T14:35:43.264Z,26.32
2022-08-07T14:38:09.490Z,25.81
2022-08-07T14:41:12.419Z,25.85
2022-08-07T14:43:57.950Z,26.19
2022-08-07T14:46:35.700Z,26.65
2022-08-07T14:49:55.938Z,26.18
2022-08-07T14:52:04.656Z,26.11
2022-08-07T14:57:28.975Z,26.80
2022-08-07T15:00:29.870Z,26.57
2022-08-07T15:03:00.020Z,27.02
2022-08-07T15:05:27.668Z,27.00
2022-08-07T15:07:58.252Z,27.08
2022-08-07T15:10:29.835Z,27.40
2022-08-07T15:13:01.077Z,27.57
2022-08-07T15:15:38.901Z,27.74
2022-08-07T15:21:07.966Z,28.16
2022-08-07T15:26:35.322Z,28.76
2022-08-07T15:34:50.731Z,29.21
2022-08-07T15:40:34.503Z,29.07
2022-08-07T15:43:11.025Z,29.32
2022-08-07T15:54:34.265Z,29.33
2022-08-07T15:57:02.668Z,29.26
2022-08-07T15:59:39.762Z,29.00
2022-08-07T16:02:15.226Z,29.60
2022-08-07T16:04:43.985Z,29.40
2022-08-07T16:08:29.039Z,29.29
2022-08-07T16:10:14.863Z,29.36
2022-08-07T16:13:17.570Z,29.26
2022-08-07T16:16:47.603Z,29.23
2022-08-07T16:19:58.931Z,29.69
2022-08-07T16:22:33.647Z,29.57
2022-08-07T16:25:54.666Z,29.72
2022-08-07T16:29:18.660Z,29.80
2022-08-07T16:31:51.477Z,30.08
2022-08-07T16:34:32.243Z,30.67
2022-08-07T16:38:03.601Z,30.70
2022-08-07T16:40:28.884Z,30.96
2022-08-07T16:44:02.526Z,31.31
2022-08-07T16:47:06.758Z,31.51
2022-08-07T16:50:27.290Z,31.67
2022-08-07T16:53:14.959Z,32.08
2022-08-07T16:56:11.170Z,32.61
2022-08-07T16:59:14.440Z,32.08
2022-08-07T17:02:05.066Z,32.76
2022-08-07T17:04:51.186Z,32.77
2022-08-07T17:07:57.780Z,32.89
2022-08-07T17:10:54.383Z,32.66
2022-08-07T17:13:41.297Z,32.94
2022-08-07T17:16:22.319Z,33.20
2022-08-07T17:18:51.418Z,33.67
2022-08-07T17:21:51.110Z,33.66
2022-08-07T17:24:47.143Z,34.16
2022-08-07T17:27:36.619Z,34.30
2022-08-07T17:30:15.641Z,34.30
2022-08-07T17:34:09.179Z,34.28
2022-08-07T17:36:02.449Z,34.44
2022-08-07T17:38:50.201Z,35.17
2022-08-07T17:42:01.823Z,35.24
2022-08-07T17:44:45.646Z,35.48
2022-08-07T17:47:38.133Z,35.49
2022-08-07T17:50:19.307Z,35.95
2022-08-07T17:52:52.145Z,36.22
2022-08-07T17:55:55.728Z,36.38
2022-08-07T17:59:20.120Z,36.64
2022-08-07T18:01:56.807Z,36.71
2022-08-07T18:04:31.168Z,36.85
2022-08-07T18:07:20.095Z,36.98
2022-08-07T18:10:07.311Z,37.13
2022-08-07T18:12:51.786Z,37.33
2022-08-07T18:15:35.636Z,37.70
2022-08-07T18:18:44.900Z,37.79
2022-08-07T18:21:42.065Z,37.97
2022-08-07T18:24:33.177Z,38.03
2022-08-07T18:27:38.270Z,38.54
2022-08-07T18:30:31.875Z,38.11
2022-08-07T18:33:28.942Z,38.38
2022-08-07T18:36:32.888Z,38.52
2022-08-07T18:40:07.209Z,38.48
2022-08-07T18:42:44.670Z,38.66
2022-08-07T18:45:43.341Z,38.55
2022-08-07T18:50:04.860Z,39.00
2022-08-07T18:52:51.787Z,38.85
2022-08-07T18:54:50.986Z,39.32
2022-08-07T18:57:37.119Z,39.43
2022-08-07T19:00:33.157Z,39.22
2022-08-07T19:03:38.016Z,39.70
2022-08-07T19:06:33.942Z,39.94
2022-08-07T19:09:56.643Z,40.02
2022-08-07T19:12:53.445Z,40.42
2022-08-07T19:16:05.877Z,40.72
2022-08-07T19:19:02.532Z,40.81
2022-08-07T19:22:05.081Z,40.68
2022-08-07T19:24:44.503Z,41.12
2022-08-07T19:28:58.565Z,41.28
2022-08-07T19:31:05.750Z,41.63
2022-08-07T19:33:10.061Z,41.95
2022-08-07T19:35:42.087Z,41.88
2022-08-07T19:38:16.049Z,42.40
2022-08-07T19:40:50.641Z,42.52
2022-08-07T19:43:43.518Z,42.43
2022-08-07T19:46:19.217Z,42.60
2022-08-07T19:49:00.104Z,43.02
2022-08-07T19:51:51.007Z,43.29
2022-08-07T19:54:30.888Z,43.51
2022-08-07T19:58:03.262Z,43.51
2022-08-07T20:00:08.819Z,43.99
2022-08-07T20:03:01.643Z,44.50
2022-08-07T20:06:00.592Z,44.73
2022-08-07T20:08:28.498Z,45.29
2022-08-07T20:11:02.171Z,45.41
2022-08-07T20:13:42.346Z,45.72
2022-08-07T20:16:32.186Z,46.19
2022-08-07T20:18:59.183Z,46.39
2022-08-07T20:21:29.131Z,46.73
2022-08-07T20:24:16.649Z,47.11
2022-08-07T20:26:52.128Z,47.40
2022-08-07T20:29:49.072Z,47.32
2022-08-07T20:32:23.121Z,47.39
2022-08-07T20:35:00.561Z,47.71
2022-08-07T20:37:46.849Z,48.41
2022-08-07T20:40:31.170Z,48.67
2022-08-07T20:43:01.071Z,49.19
2022-08-07T20:45:33.555Z,49.44
2022-08-07T20:48:28.667Z,49.91
2022-08-07T20:51:00.159Z,50.31
2022-08-07T20:54:02.275Z,50.70
2022-08-07T20:56:26.062Z,50.96
2022-08-07T20:58:55.835Z,50.99
2022-08-07T21:01:26.778Z,51.17
2022-08-07T21:04:21.992Z,51.26
2022-08-07T21:06:53.416Z,51.29
2022-08-07T21:09:24.217Z,51.30
2022-08-07T21:11:57.042Z,51.55
2022-08-07T21:14:33.271Z,51.92
2022-08-07T21:18:00.976Z,52.02
2022-08-07T21:20:01.015Z,52.20
2022-08-07T21:22:38.559Z,52.39
2022-08-07T21:25:12.035Z,52.47
2022-08-07T21:28:02.120Z,52.52
2022-08-07T21:30:46.887Z,52.48
2022-08-07T21:33:21.433Z,52.31
2022-08-07T21:36:12.197Z,52.54
2022-08-07T21:39:46.626Z,52.53
2022-08-07T21:42:48.178Z,52.55
2022-08-07T21:46:08.582Z,52.65
2022-08-07T21:48:41.524Z,52.73
2022-08-07T21:51:20.306Z,53.02
2022-08-07T21:53:54.961Z,53.25
2022-08-07T21:56:37.701Z,53.49
2022-08-07T21:59:22.379Z,53.61
2022-08-07T22:02:11.091Z,53.87
2022-08-07T22:04:51.108Z,53.97
2022-08-07T22:07:31.581Z,54.19
2022-08-07T22:10:12.880Z,54.41
2022-08-07T22:12:53.689Z,54.38
2022-08-07T22:16:39.867Z,54.40
2022-08-07T22:18:49.789Z,54.96
2022-08-07T22:22:02.799Z,54.73
2022-08-07T22:25:07.564Z,54.64
2022-08-07T22:28:29.832Z,54.98
2022-08-07T22:30:31.636Z,55.12
2022-08-07T22:33:12.824Z,54.98
2022-08-07T22:36:04.425Z,55.09
2022-08-07T22:38:48.174Z,55.44
2022-08-07T22:41:29.183Z,55.48
2022-08-07T22:44:13.293Z,55.46
2022-08-07T22:47:23.180Z,55.90
2022-08-07T22:50:13.232Z,55.93
2022-08-07T22:53:15.358Z,56.12
2022-08-07T22:55:57.130Z,56.41
2022-08-07T22:58:38.178Z,56.58
2022-08-07T23:01:23.582Z,56.90
2022-08-07T23:04:16.409Z,56.94
2022-08-07T23:07:39.713Z,57.02
2022-08-07T23:10:41.849Z,57.01
2022-08-07T23:13:49.009Z,57.07
2022-08-07T23:16:54.615Z,57.10
2022-08-07T23:20:06.491Z,57.10
2022-08-07T23:22:52.556Z,57.19
2022-08-07T23:25:37.896Z,57.15
2022-08-07T23:28:29.474Z,57.00
2022-08-07T23:31:42.874Z,57.03
2022-08-07T23:34:38.244Z,57.24
2022-08-07T23:37:29.440Z,57.10
2022-08-07T23:40:07.399Z,57.38
2022-08-07T23:43:16.788Z,57.15
2022-08-07T23:46:03.643Z,57.57
2022-08-07T23:49:15.636Z,57.74
2022-08-07T23:53:01.266Z,57.57
2022-08-07T23:54:59.345Z,57.67
2022-08-07T23:57:44.548Z,57.67
